createdAt,value
2022-11-05T00:00:38.396Z,10.80
2022-11-05T00:03:24.011Z,10.90
2022-11-05T00:06:11.290Z,10.80
2022-11-05T00:08:58.286Z,10.90
2022-11-05T00:11:45.226Z,10.80
2022-11-05T00:14:30.632Z,10.90
2022-11-05T00:16:57.552Z,10.80
2022-11-05T00:19:24.458Z,10.80
2022-11-05T00:22:10.043Z,10.70
2022-11-05T00:24:55.381Z,10.80
2022-11-05T00:27:22.339Z,10.70
2022-11-05T00:29:49.298Z,10.70
2022-11-05T00:32:16.346Z,10.70
2022-11-05T00:37:24.295Z,10.50
2022-11-05T00:39:51.300Z,10.50
2022-11-05T00:42:36.778Z,10.50
2022-11-05T00:45:04.936Z,10.60
2022-11-05T00:47:52.998Z,10.50
2022-11-05T00:50:21.537Z,10.50
2022-11-05T00:52:56.417Z,10.40
2022-11-05T00:55:57.355Z,10.50
2022-11-05T00:58:24.725Z,10.30
2022-11-05T01:00:54.011Z,10.30
2022-11-05T01:03:24.677Z,10.30
2022-11-05T01:05:53.993Z,10.30
2022-11-05T01:08:23.235Z,10.30
2022-11-05T01:11:00.452Z,10.20
2022-11-05T01:13:30.165Z,10.20
2022-11-05T01:15:57.528Z,10.10
2022-11-05T01:18:24.865Z,10.10
2022-11-05T01:20:51.884Z,10.10
2022-11-05T01:23:19.160Z,10.10
2022-11-05T01:25:46.653Z,10.10
2022-11-05T01:28:13.643Z,10.00
2022-11-05T01:30:40.758Z,9.90
2022-11-05T01:33:08.086Z,10.00
2022-11-05T01:35:35.317Z,10.00
2022-11-05T01:38:02.372Z,10.00
2022-11-05T01:40:29.390Z,10.00
2022-11-05T01:42:56.365Z,10.00
2022-11-05T01:45:28.059Z,9.90
2022-11-05T01:47:59.353Z,10.00
2022-11-05T01:50:34.586Z,10.00
2022-11-05T01:53:08.501Z,9.90
2022-11-05T01:55:40.260Z,9.90
2022-11-05T01:58:10.931Z,9.90
2022-11-05T02:00:39.417Z,9.80
2022-11-05T02:03:07.068Z,9.90
2022-11-05T02:05:35.166Z,9.80
2022-11-05T02:08:03.319Z,9.70
2022-11-05T02:10:30.780Z,9.70
2022-11-05T02:12:59.584Z,9.70
2022-11-05T02:15:43.669Z,9.70
2022-11-05T02:18:25.035Z,9.70
2022-11-05T02:21:04.199Z,9.70
2022-11-05T02:24:06.506Z,9.70
2022-11-05T02:26:58.555Z,9.60
2022-11-05T02:29:56.450Z,9.60
2022-11-05T02:33:03.935Z,9.60
2022-11-05T02:35:48.172Z,9.60
2022-11-05T02:39:09.814Z,9.60
2022-11-05T02:42:23.230Z,9.70
2022-11-05T02:44:59.096Z,9.70
2022-11-05T02:47:48.877Z,9.70
2022-11-05T02:50:35.293Z,9.70
2022-11-05T02:53:11.727Z,9.70
2022-11-05T02:55:47.379Z,9.70
2022-11-05T02:58:14.593Z,9.70
2022-11-05T03:00:48.458Z,9.70
2022-11-05T03:03:24.149Z,9.70
2022-11-05T03:06:06.613Z,9.70
2022-11-05T03:09:09.918Z,9.60
2022-11-05T03:12:03.990Z,9.60
2022-11-05T03:14:55.019Z,9.10
2022-11-05T03:17:41.294Z,9.50
2022-11-05T03:20:24.597Z,9.50
2022-11-05T03:23:14.597Z,10.00
2022-11-05T03:29:20.391Z,9.50
2022-11-05T03:32:09.777Z,9.50
2022-11-05T03:34:52.213Z,9.60
2022-11-05T03:37:23.415Z,8.30
2022-11-05T03:39:56.675Z,9.40
2022-11-05T03:42:28.344Z,9.50
2022-11-05T03:45:02.134Z,9.50
2022-11-05T03:47:51.750Z,9.40
2022-11-05T03:50:41.512Z,9.40
2022-11-05T03:53:25.165Z,9.40
2022-11-05T03:56:26.853Z,9.40
2022-11-05T04:05:14.567Z,9.40
2022-11-05T04:08:31.846Z,9.40
2022-11-05T04:11:21.970Z,9.50
2022-11-05T04:13:49.304Z,9.50
2022-11-05T04:17:07.190Z,9.50
2022-11-05T04:19:59.278Z,9.40
2022-11-05T04:25:33.142Z,9.40
2022-11-05T04:28:25.794Z,9.40
2022-11-05T04:30:53.980Z,9.30
2022-11-05T04:33:40.058Z,9.30
2022-11-05T04:36:10.094Z,9.40
2022-11-05T04:39:10.233Z,9.30
2022-11-05T04:41:37.577Z,9.30
2022-11-05T04:47:48.128Z,9.30
2022-11-05T04:53:50.338Z,9.30
2022-11-05T04:59:27.605Z,9.30
2022-11-05T05:01:54.757Z,9.20
2022-11-05T05:04:25.047Z,9.20
2022-11-05T05:31:41.494Z,9.00
2022-11-05T05:38:02.945Z,9.00
2022-11-05T05:40:30.956Z,9.00
2022-11-05T05:42:58.279Z,9.00
2022-11-05T05:45:25.928Z,9.00
2022-11-05T05:47:59.657Z,9.00
2022-11-05T05:50:31.783Z,9.00
2022-11-05T05:53:17.066Z,9.00
2022-11-05T05:59:04.827Z,9.00
2022-11-05T06:01:40.690Z,9.00
2022-11-05T06:04:11.485Z,9.00
2022-11-05T06:06:41.100Z,8.90
2022-11-05T06:09:18.822Z,8.90
2022-11-05T06:11:48.795Z,8.80
2022-11-05T06:14:21.057Z,8.90
2022-11-05T06:16:48.182Z,8.80
2022-11-05T06:19:18.255Z,8.90
2022-11-05T06:22:01.216Z,9.60
2022-11-05T06:24:30.794Z,9.00
2022-11-05T06:29:53.341Z,8.90
2022-11-05T06:32:29.611Z,8.90
2022-11-05T06:34:58.140Z,8.90
2022-11-05T06:37:30.244Z,8.90
2022-11-05T06:39:57.774Z,9.00
2022-11-05T06:42:35.714Z,9.00
2022-11-05T06:48:15.508Z,9.00
2022-11-05T06:51:05.028Z,9.00
2022-11-05T06:53:32.218Z,9.00
2022-11-05T06:56:03.530Z,9.00
2022-11-05T06:58:31.234Z,9.00
2022-11-05T10:29:28.385Z,11.50
2022-11-05T10:31:57.781Z,11.50
2022-11-05T10:34:41.738Z,11.60
2022-11-05T10:37:23.661Z,11.60
2022-11-05T10:39:52.636Z,11.70
2022-11-05T10:42:33.256Z,11.80
2022-11-05T11:01:33.205Z,11.80
2022-11-05T11:04:24.572Z,11.80
2022-11-05T11:11:05.893Z,11.70
2022-11-05T11:40:49.757Z,12.10
2022-11-05T15:27:56.336Z,11.40
2022-11-05T15:37:29.845Z,11.30
2022-11-05T15:39:59.335Z,11.30
2022-11-05T15:42:30.715Z,11.30
2022-11-05T15:44:59.813Z,11.30
2022-11-05T15:47:28.493Z,11.30
2022-11-05T15:50:14.918Z,11.30
2022-11-05T15:52:55.469Z,11.30
2022-11-05T15:55:26.755Z,11.30
2022-11-05T15:57:59.302Z,11.30
2022-11-05T16:00:29.168Z,11.30
2022-11-05T16:03:03.528Z,11.30
2022-11-05T16:05:36.410Z,11.30
2022-11-05T16:08:07.106Z,11.30
2022-11-05T16:10:38.508Z,11.30
2022-11-05T16:13:27.548Z,11.30
2022-11-05T16:15:56.354Z,11.20
2022-11-05T16:18:29.755Z,11.20
2022-11-05T16:21:05.893Z,11.20
2022-11-05T16:23:47.100Z,11.20
2022-11-05T16:29:33.018Z,11.20
2022-11-05T16:32:04.077Z,11.10
2022-11-05T16:34:39.096Z,11.10
2022-11-05T16:37:08.211Z,11.00
2022-11-05T16:39:35.183Z,11.00
2022-11-05T16:42:02.322Z,11.00
2022-11-05T16:44:29.692Z,11.00
2022-11-05T16:46:56.804Z,10.90
2022-11-05T16:49:24.178Z,10.90
2022-11-05T16:51:51.252Z,10.90
2022-11-05T16:54:18.522Z,10.90
2022-11-05T16:56:47.856Z,10.90
2022-11-05T16:59:15.524Z,10.90
2022-11-05T17:01:43.199Z,10.90
2022-11-05T17:04:13.273Z,10.80
2022-11-05T17:06:40.286Z,10.80
2022-11-05T17:09:07.589Z,10.80
2022-11-05T17:11:34.876Z,10.80
2022-11-05T17:14:02.291Z,10.80
2022-11-05T17:16:29.648Z,10.80
2022-11-05T17:18:57.250Z,10.80
2022-11-05T17:21:24.625Z,10.80
2022-11-05T17:23:52.059Z,10.70
2022-11-05T17:26:19.593Z,10.70
2022-11-05T17:28:47.104Z,10.60
2022-11-05T17:31:15.360Z,10.60
2022-11-05T17:33:42.514Z,10.60
2022-11-05T17:36:16.998Z,10.50
2022-11-05T17:38:45.789Z,10.50
2022-11-05T17:41:13.912Z,10.50
2022-11-05T17:43:41.781Z,10.50
2022-11-05T17:46:11.260Z,10.40
2022-11-05T17:48:41.940Z,10.40
2022-11-05T17:51:11.940Z,10.40
2022-11-05T17:53:40.284Z,10.40
2022-11-05T17:56:22.129Z,10.30
2022-11-05T17:58:55.706Z,10.30
2022-11-05T18:01:35.955Z,10.30
2022-11-05T18:04:08.655Z,10.30
2022-11-05T18:06:38.369Z,10.30
2022-11-05T18:09:10.661Z,10.30
2022-11-05T18:11:38.694Z,10.30
2022-11-05T18:14:09.309Z,10.30
2022-11-05T18:16:36.787Z,10.30
2022-11-05T18:19:04.490Z,10.30
2022-11-05T18:21:31.440Z,10.30
2022-11-05T18:23:58.744Z,10.30
2022-11-05T18:26:29.200Z,10.30
2022-11-05T18:28:57.188Z,10.30
2022-11-05T18:31:24.423Z,10.30
2022-11-05T18:33:56.993Z,10.30
2022-11-05T18:36:27.157Z,10.30
2022-11-05T18:38:55.088Z,10.30
2022-11-05T18:41:32.698Z,10.30
2022-11-05T18:44:01.653Z,10.30
2022-11-05T18:46:56.645Z,10.30
2022-11-05T18:49:18.544Z,10.20
2022-11-05T18:51:51.568Z,10.30
2022-11-05T18:54:18.636Z,10.30
2022-11-05T18:56:47.058Z,10.20
2022-11-05T19:02:05.442Z,10.20
2022-11-05T19:04:32.931Z,10.20
2022-11-05T19:07:04.443Z,10.20
2022-11-05T19:09:37.500Z,10.20
2022-11-05T19:12:06.841Z,10.20
2022-11-05T19:14:35.316Z,10.20
2022-11-05T19:17:03.358Z,10.20
2022-11-05T19:19:30.826Z,10.20
2022-11-05T19:22:01.858Z,10.20
2022-11-05T19:24:32.250Z,10.20
2022-11-05T19:26:59.395Z,10.20
2022-11-05T19:29:27.923Z,10.20
2022-11-05T19:31:55.366Z,10.20
2022-11-05T19:34:22.369Z,10.20
2022-11-05T19:36:52.987Z,10.20
2022-11-05T19:39:23.537Z,10.20
2022-11-05T19:41:51.453Z,10.20
2022-11-05T19:44:19.279Z,10.20
2022-11-05T19:46:49.429Z,10.10
2022-11-05T19:49:17.100Z,10.20
2022-11-05T19:51:44.292Z,10.20
2022-11-05T19:54:11.661Z,10.20
2022-11-05T19:56:39.091Z,10.20
2022-11-05T19:59:07.542Z,10.20
2022-11-05T20:01:35.957Z,10.20
2022-11-05T20:04:03.941Z,10.20
2022-11-05T20:06:38.339Z,10.10
2022-11-05T20:09:27.416Z,10.10
2022-11-05T20:12:00.694Z,10.10
2022-11-05T20:14:27.848Z,10.10
2022-11-05T20:16:55.148Z,10.10
2022-11-05T20:19:23.805Z,10.10
2022-11-05T20:21:52.103Z,10.10
2022-11-05T20:24:25.455Z,10.10
2022-11-05T20:26:54.659Z,10.10
2022-11-05T20:29:22.263Z,10.10
2022-11-05T20:31:50.034Z,10.00
2022-11-05T20:34:17.432Z,10.10
2022-11-05T20:36:47.959Z,10.10
2022-11-05T20:39:15.847Z,10.10
2022-11-05T20:41:43.254Z,10.10
2022-11-05T20:44:11.641Z,10.10
2022-11-05T20:46:39.053Z,10.10
2022-11-05T20:49:08.473Z,10.10
2022-11-05T20:51:35.809Z,10.00
2022-11-05T20:54:04.475Z,10.10
2022-11-05T20:56:48.876Z,10.10
2022-11-05T20:59:16.541Z,10.10
2022-11-05T21:01:44.330Z,10.10
2022-11-05T21:04:12.095Z,10.10
2022-11-05T21:06:39.534Z,10.00
2022-11-05T21:09:08.542Z,10.10
2022-11-05T21:11:54.195Z,10.10
2022-11-05T21:14:23.099Z,10.10
2022-11-05T21:16:51.540Z,10.10
2022-11-05T21:19:18.647Z,10.10
2022-11-05T21:21:46.013Z,10.10
2022-11-05T21:24:14.671Z,10.00
2022-11-05T21:26:42.307Z,10.00
2022-11-05T21:29:12.788Z,10.00
2022-11-05T21:31:40.176Z,10.10
2022-11-05T21:34:07.562Z,10.10
2022-11-05T21:36:39.139Z,10.10
2022-11-05T21:39:13.502Z,10.00
2022-11-05T21:41:45.218Z,10.00
2022-11-05T21:44:12.493Z,10.10
2022-11-05T21:46:39.599Z,10.10
2022-11-05T21:52:07.365Z,10.00
2022-11-05T21:54:53.344Z,10.10
2022-11-05T21:57:46.351Z,10.00
2022-11-05T22:00:14.165Z,10.00
2022-11-05T22:02:47.842Z,10.10
2022-11-05T22:05:16.575Z,10.00
2022-11-05T22:07:43.797Z,10.00
2022-11-05T22:10:16.158Z,10.10
2022-11-05T22:12:44.985Z,10.00
2022-11-05T22:15:12.484Z,10.00
2022-11-05T22:17:43.836Z,10.10
2022-11-05T22:20:15.326Z,10.00
2022-11-05T22:22:46.304Z,10.10
2022-11-05T22:25:15.978Z,10.00
2022-11-05T22:27:44.089Z,10.00
2022-11-05T22:30:12.084Z,10.00
2022-11-05T22:32:40.337Z,10.00
2022-11-05T22:35:09.062Z,10.00
2022-11-05T22:37:36.051Z,10.00
2022-11-05T22:40:03.137Z,10.00
2022-11-05T22:42:30.190Z,10.00
2022-11-05T22:44:58.258Z,10.10
2022-11-05T22:47:31.785Z,10.00
2022-11-05T22:50:05.032Z,10.00
2022-11-05T22:52:32.819Z,10.00
2022-11-05T22:55:02.689Z,10.00
2022-11-05T22:57:30.070Z,10.10
2022-11-05T22:59:56.974Z,10.10
2022-11-05T23:02:24.522Z,10.10
2022-11-05T23:04:52.130Z,10.10
2022-11-05T23:07:37.511Z,10.10
2022-11-05T23:10:23.818Z,10.00
2022-11-05T23:12:53.204Z,10.00
2022-11-05T23:15:41.868Z,10.00
2022-11-05T23:18:30.894Z,10.10
2022-11-05T23:21:20.533Z,10.00
2022-11-05T23:24:04.941Z,10.00
2022-11-05T23:26:51.630Z,10.00
2022-11-05T23:29:24.737Z,10.10
2022-11-05T23:32:11.266Z,10.10
2022-11-05T23:34:39.328Z,10.10
2022-11-05T23:37:29.918Z,10.00
2022-11-05T23:39:57.197Z,10.00
2022-11-05T23:42:42.779Z,10.00
2022-11-05T23:45:31.813Z,10.00
2022-11-05T23:48:35.374Z,10.00
2022-11-05T23:51:12.766Z,10.00
2022-11-05T23:53:41.625Z,10.10
2022-11-05T23:56:16.742Z,10.10
2022-11-05T23:58:43.817Z,10.10
